createdAt,value
2019-04-04T00:01:01.899Z,82.855225
2019-04-04T00:02:12.039Z,83.056641
2019-04-04T00:03:22.456Z,83.056641
2019-04-04T00:04:31.961Z,82.855225
2019-04-04T00:05:41.514Z,82.855225
2019-04-04T00:06:51.043Z,82.751465
2019-04-04T00:08:01.516Z,82.855225
2019-04-04T00:09:11.026Z,82.751465
2019-04-04T00:10:20.547Z,82.855225
2019-04-04T00:11:30.065Z,82.751465
2019-04-04T00:12:40.550Z,82.647705
2019-04-04T00:13:50.056Z,82.647705
2019-04-04T00:14:59.552Z,82.647705
2019-04-04T00:16:09.054Z,82.952881
2019-04-04T00:17:22.865Z,83.056641
2019-04-04T00:18:29.054Z,83.203125
2019-04-04T00:19:38.565Z,83.306885
2019-04-04T00:20:48.066Z,83.203125
2019-04-04T00:21:57.593Z,83.203125
2019-04-04T00:23:08.069Z,83.099365
2019-04-04T00:24:17.565Z,83.514404
2019-04-04T00:25:27.066Z,83.721924
2019-04-04T00:26:36.579Z,83.618164
2019-04-04T00:27:47.068Z,84.0271
2019-04-04T00:28:56.579Z,84.173584
2019-04-04T00:30:06.083Z,84.173584
2019-04-04T00:31:18.720Z,84.069824
2019-04-04T00:32:25.111Z,84.173584
2019-04-04T00:33:34.626Z,84.069824
2019-04-04T00:34:44.128Z,83.929443
2019-04-04T00:35:53.631Z,83.618164
2019-04-04T00:37:04.689Z,83.618164
2019-04-04T00:38:12.686Z,83.514404
2019-04-04T00:39:22.202Z,83.410645
2019-04-04T00:40:31.715Z,83.514404
2019-04-04T00:41:41.221Z,83.343506
2019-04-04T00:42:50.727Z,83.551025
2019-04-04T00:44:00.254Z,83.966064
2019-04-04T00:45:09.759Z,83.966064
2019-04-04T00:46:19.274Z,83.343506
2019-04-04T00:47:28.788Z,83.862305
2019-04-04T00:48:38.270Z,84.173584
2019-04-04T00:49:47.774Z,84.277344
2019-04-04T00:50:57.272Z,83.966064
2019-04-04T00:52:09.911Z,83.966064
2019-04-04T00:53:16.278Z,83.966064
2019-04-04T00:54:25.816Z,84.069824
2019-04-04T00:55:35.301Z,84.069824
2019-04-04T00:56:44.814Z,83.966064
2019-04-04T00:57:54.324Z,83.862305
2019-04-04T00:59:03.830Z,83.551025
2019-04-04T01:00:13.339Z,83.654785
2019-04-04T01:01:25.931Z,83.966064
2019-04-04T01:02:32.353Z,83.966064
2019-04-04T01:03:41.861Z,83.447266
2019-04-04T01:04:51.373Z,83.447266
2019-04-04T01:06:02.653Z,84.069824
2019-04-04T01:07:10.385Z,84.381104
2019-04-04T01:08:19.917Z,84.417725
2019-04-04T01:09:29.417Z,84.417725
2019-04-04T01:10:38.920Z,84.521484
2019-04-04T01:11:50.832Z,84.484863
2019-04-04T01:12:57.943Z,84.381104
2019-04-04T01:14:07.446Z,84.521484
2019-04-04T01:15:16.959Z,84.521484
2019-04-04T01:16:26.471Z,84.417725
2019-04-04T01:17:36.978Z,84.417725
2019-04-04T01:18:46.499Z,84.625244
2019-04-04T01:19:56.019Z,84.521484
2019-04-04T01:21:05.539Z,84.625244
2019-04-04T01:22:15.046Z,84.521484
2019-04-04T01:23:25.115Z,84.625244
2019-04-04T01:24:34.049Z,84.521484
2019-04-04T01:25:43.550Z,84.417725
2019-04-04T01:26:53.054Z,84.729004
2019-04-04T01:28:02.578Z,84.625244
2019-04-04T01:29:13.055Z,84.729004
2019-04-04T01:30:22.558Z,84.832764
2019-04-04T01:31:32.063Z,84.729004
2019-04-04T01:32:41.572Z,84.832764
2019-04-04T01:33:52.066Z,84.979248
2019-04-04T01:35:01.578Z,85.083008
2019-04-04T01:36:11.082Z,85.040283
2019-04-04T01:37:20.584Z,84.936523
2019-04-04T01:38:31.093Z,84.832764
2019-04-04T01:39:40.602Z,84.771729
2019-04-04T01:40:50.104Z,84.564209
2019-04-04T01:41:59.606Z,84.979248
2019-04-04T01:43:10.140Z,84.979248
2019-04-04T01:44:19.602Z,84.875488
2019-04-04T01:45:29.108Z,85.186768
2019-04-04T01:46:38.613Z,85.498047
2019-04-04T01:47:49.096Z,85.083008
2019-04-04T01:48:58.619Z,85.534668
2019-04-04T01:50:08.127Z,85.845947
2019-04-04T01:51:17.631Z,85.845947
2019-04-04T01:52:28.815Z,86.260986
2019-04-04T01:53:37.637Z,86.572266
2019-04-04T01:54:47.149Z,86.468506
2019-04-04T01:55:56.644Z,86.364746
2019-04-04T01:57:08.016Z,86.157227
2019-04-04T01:58:15.677Z,86.572266
2019-04-04T01:59:25.175Z,86.468506
2019-04-04T02:00:34.681Z,86.260986
2019-04-04T02:01:46.542Z,86.053467
2019-04-04T02:02:53.676Z,86.157227
2019-04-04T02:04:03.200Z,86.260986
2019-04-04T02:05:12.724Z,86.364746
2019-04-04T02:06:22.232Z,86.364746
2019-04-04T02:07:32.727Z,86.364746
2019-04-04T02:08:42.262Z,86.364746
2019-04-04T02:09:51.773Z,86.120605
2019-04-04T02:11:01.280Z,86.224365
2019-04-04T02:12:10.772Z,85.913086
2019-04-04T02:13:20.333Z,85.498047
2019-04-04T02:14:29.842Z,85.498047
2019-04-04T02:15:39.355Z,85.186768
2019-04-04T02:16:51.571Z,84.667969
2019-04-04T02:17:59.335Z,84.625244
2019-04-04T02:19:08.865Z,84.729004
2019-04-04T02:20:18.382Z,84.106445
2019-04-04T02:21:28.677Z,84.625244
2019-04-04T02:22:37.377Z,84.625244
2019-04-04T02:23:46.889Z,84.417725
2019-04-04T02:24:56.392Z,84.729004
2019-04-04T02:26:06.903Z,84.417725
2019-04-04T02:27:16.408Z,84.521484
2019-04-04T02:28:25.915Z,84.625244
2019-04-04T02:29:35.513Z,84.625244
2019-04-04T02:30:48.430Z,84.313965
2019-04-04T02:31:55.474Z,84.417725
2019-04-04T02:33:05.040Z,84.313965
2019-04-04T02:34:14.500Z,84.417725
2019-04-04T02:35:24.004Z,84.313965
2019-04-04T02:36:33.510Z,83.898926
2019-04-04T02:37:43.010Z,84.106445
2019-04-04T02:38:52.529Z,83.898926
2019-04-04T02:40:03.023Z,83.483887
2019-04-04T02:41:15.373Z,83.483887
2019-04-04T02:42:22.978Z,83.654785
2019-04-04T02:43:32.487Z,83.654785
2019-04-04T02:44:42.009Z,83.447266
2019-04-04T02:45:51.514Z,83.551025
2019-04-04T02:47:01.025Z,83.447266
2019-04-04T02:48:10.523Z,83.239746
2019-04-04T02:49:20.044Z,83.239746
2019-04-04T02:50:34.186Z,82.928467
2019-04-04T02:51:41.440Z,83.135986
2019-04-04T02:52:50.520Z,83.032227
2019-04-04T02:54:01.033Z,83.551025
2019-04-04T02:55:10.541Z,83.551025
2019-04-04T02:56:20.043Z,83.032227
2019-04-04T02:57:29.547Z,82.928467
2019-04-04T02:58:39.053Z,82.928467
2019-04-04T02:59:52.777Z,82.684326
2019-04-04T03:01:00.240Z,82.891846
2019-04-04T03:02:08.516Z,82.891846
2019-04-04T03:03:18.019Z,82.788086
2019-04-04T03:04:27.556Z,82.684326
2019-04-04T03:05:37.069Z,82.684326
2019-04-04T03:06:46.574Z,82.580566
2019-04-04T03:07:56.076Z,82.373047
2019-04-04T03:09:08.823Z,82.269287
2019-04-04T03:10:16.737Z,82.476807
2019-04-04T03:11:25.548Z,82.269287
2019-04-04T03:12:35.054Z,82.373047
2019-04-04T03:13:44.560Z,82.684326
2019-04-04T03:14:54.074Z,82.788086
2019-04-04T03:16:03.585Z,82.788086
2019-04-04T03:17:13.100Z,82.788086
2019-04-04T03:18:22.603Z,82.891846
2019-04-04T03:19:32.184Z,82.928467
2019-04-04T03:20:41.675Z,82.995605
2019-04-04T03:21:54.660Z,82.788086
2019-04-04T03:23:01.723Z,82.824707
2019-04-04T03:24:11.154Z,82.824707
2019-04-04T03:25:20.682Z,83.135986
2019-04-04T03:26:30.184Z,82.928467
2019-04-04T03:27:39.688Z,82.720947
2019-04-04T03:28:49.187Z,82.995605
2019-04-04T03:29:58.708Z,82.891846
2019-04-04T03:31:08.217Z,82.684326
2019-04-04T03:32:17.828Z,82.684326
2019-04-04T03:33:31.191Z,82.373047
2019-04-04T03:34:37.678Z,82.373047
2019-04-04T03:35:48.187Z,82.269287
2019-04-04T03:36:57.690Z,82.476807
2019-04-04T03:38:08.192Z,82.373047
2019-04-04T03:39:19.565Z,82.476807
2019-04-04T03:40:28.157Z,82.269287
2019-04-04T03:41:37.655Z,82.580566
2019-04-04T03:42:47.160Z,82.476807
2019-04-04T03:43:56.652Z,82.061768
2019-04-04T03:45:06.172Z,82.269287
2019-04-04T03:46:15.669Z,82.476807
2019-04-04T03:47:26.160Z,82.476807
2019-04-04T03:48:35.670Z,82.476807
2019-04-04T03:49:45.195Z,82.061768
2019-04-04T03:50:56.966Z,82.165527
2019-04-04T03:52:05.241Z,82.269287
2019-04-04T03:53:17.263Z,82.269287
2019-04-04T03:54:25.216Z,82.476807
2019-04-04T03:55:34.727Z,82.165527
2019-04-04T03:56:44.238Z,82.373047
2019-04-04T03:57:55.060Z,82.269287
2019-04-04T03:59:03.205Z,82.476807
2019-04-04T04:00:12.728Z,82.891846
2019-04-04T04:01:22.234Z,82.824707
2019-04-04T04:02:31.736Z,82.928467
2019-04-04T04:03:41.235Z,83.239746
2019-04-04T04:04:50.739Z,83.032227
2019-04-04T04:06:00.274Z,83.135986
2019-04-04T04:07:13.704Z,83.343506
2019-04-04T04:08:21.925Z,83.135986
2019-04-04T04:09:29.734Z,83.447266
2019-04-04T04:10:39.247Z,83.758545
2019-04-04T04:11:48.751Z,83.966064
2019-04-04T04:12:58.262Z,83.654785
2019-04-04T04:14:07.779Z,83.551025
2019-04-04T04:15:17.293Z,83.447266
2019-04-04T04:16:26.809Z,83.447266
2019-04-04T04:17:37.301Z,83.343506
2019-04-04T04:18:47.776Z,83.239746
2019-04-04T04:20:03.149Z,83.239746
2019-04-04T04:21:10.761Z,83.239746
2019-04-04T04:22:19.192Z,83.447266
2019-04-04T04:23:27.770Z,83.551025
2019-04-04T04:24:37.275Z,83.551025
2019-04-04T04:25:46.790Z,83.966064
2019-04-04T04:26:56.290Z,83.862305
2019-04-04T04:28:05.799Z,83.758545
2019-04-04T04:29:15.299Z,83.862305
2019-04-04T04:30:24.803Z,83.551025
2019-04-04T04:31:34.335Z,83.551025
2019-04-04T04:32:43.852Z,83.654785
2019-04-04T04:33:53.346Z,83.514404
2019-04-04T04:35:07.355Z,83.618164
2019-04-04T04:36:15.616Z,83.514404
2019-04-04T04:37:23.827Z,83.721924
2019-04-04T04:38:33.331Z,83.721924
2019-04-04T04:39:42.831Z,83.721924
2019-04-04T04:40:52.353Z,83.825684
2019-04-04T04:42:01.997Z,84.130859
2019-04-04T04:43:15.036Z,83.929443
2019-04-04T04:44:20.879Z,83.929443
2019-04-04T04:45:30.394Z,83.929443
2019-04-04T04:46:39.919Z,84.130859
2019-04-04T04:47:49.421Z,84.0271
2019-04-04T04:49:00.555Z,83.929443
2019-04-04T04:50:09.901Z,84.0271
2019-04-04T04:51:18.900Z,84.0271
2019-04-04T04:52:28.402Z,84.0271
2019-04-04T04:53:37.900Z,83.929443
2019-04-04T04:54:47.401Z,83.929443
2019-04-04T04:56:00.419Z,83.929443
2019-04-04T04:57:07.398Z,83.618164
2019-04-04T04:58:17.882Z,83.721924
2019-04-04T04:59:27.383Z,83.929443
2019-04-04T05:00:36.885Z,84.130859
2019-04-04T05:01:50.048Z,83.929443
2019-04-04T05:02:55.897Z,83.825684
2019-04-04T05:04:05.398Z,83.618164
2019-04-04T05:05:14.885Z,83.618164
2019-04-04T05:06:24.405Z,83.721924
2019-04-04T05:07:33.903Z,83.618164
2019-04-04T05:08:44.380Z,83.618164
2019-04-04T05:09:53.881Z,83.825684
2019-04-04T05:11:03.396Z,83.929443
2019-04-04T05:12:12.895Z,83.825684
2019-04-04T05:13:24.474Z,83.721924
2019-04-04T05:14:32.959Z,83.929443
2019-04-04T05:15:42.470Z,83.929443
2019-04-04T05:16:51.975Z,83.929443
2019-04-04T05:18:01.478Z,84.130859
2019-04-04T05:19:10.969Z,84.130859
2019-04-04T05:20:20.492Z,84.234619
2019-04-04T05:21:33.717Z,84.234619
2019-04-04T05:22:40.559Z,84.545898
2019-04-04T05:23:49.960Z,84.442139
2019-04-04T05:25:07.727Z,84.130859
2019-04-04T05:26:09.974Z,84.130859
2019-04-04T05:27:19.438Z,83.886719
2019-04-04T05:28:28.935Z,83.782959
2019-04-04T05:29:38.473Z,83.679199
2019-04-04T05:30:48.978Z,83.575439
2019-04-04T05:31:58.486Z,83.47168
2019-04-04T05:33:07.979Z,83.575439
2019-04-04T05:34:17.481Z,83.575439
2019-04-04T05:35:26.982Z,83.575439
2019-04-04T05:36:37.476Z,83.575439
2019-04-04T05:37:48.366Z,83.26416
2019-04-04T05:38:57.234Z,83.47168
2019-04-04T05:40:06.739Z,83.123779
2019-04-04T05:41:16.669Z,82.91626
2019-04-04T05:42:25.768Z,82.8125
2019-04-04T05:43:37.426Z,82.91626
2019-04-04T05:44:45.743Z,82.501221
2019-04-04T05:45:55.246Z,82.397461
2019-04-04T05:47:04.770Z,82.501221
2019-04-04T05:48:14.272Z,82.293701
2019-04-04T05:49:23.770Z,82.647705
2019-04-04T05:50:33.268Z,83.26416
2019-04-04T05:51:42.788Z,83.575439
2019-04-04T05:52:53.311Z,83.575439
2019-04-04T05:54:02.798Z,83.575439
2019-04-04T05:55:13.280Z,83.575439
2019-04-04T05:56:24.190Z,83.782959
2019-04-04T05:57:32.282Z,83.782959
2019-04-04T05:58:41.782Z,83.679199
2019-04-04T05:59:54.969Z,83.575439
2019-04-04T06:01:01.852Z,83.886719
2019-04-04T06:02:11.408Z,83.782959
2019-04-04T06:03:19.771Z,83.618164
2019-04-04T06:04:29.279Z,83.825684
2019-04-04T06:05:38.807Z,83.679199
2019-04-04T06:06:48.348Z,83.618164
2019-04-04T06:07:58.830Z,83.514404
2019-04-04T06:09:08.330Z,83.410645
2019-04-04T06:10:19.145Z,83.618164
2019-04-04T06:11:28.315Z,83.618164
2019-04-04T06:12:37.804Z,83.514404
2019-04-04T06:13:47.310Z,83.410645
2019-04-04T06:14:56.803Z,83.575439
2019-04-04T06:16:06.295Z,83.36792
2019-04-04T06:17:15.806Z,83.056641
2019-04-04T06:18:25.309Z,83.056641
2019-04-04T06:19:34.809Z,82.751465
2019-04-04T06:20:44.309Z,82.501221
2019-04-04T06:21:53.823Z,82.397461
2019-04-04T06:23:03.324Z,81.945801
2019-04-04T06:24:12.825Z,81.640625
2019-04-04T06:25:22.331Z,81.225586
2019-04-04T06:26:31.855Z,81.018066
2019-04-04T06:27:42.340Z,80.810547
2019-04-04T06:28:51.840Z,80.670166
2019-04-04T06:30:01.343Z,80.566406
2019-04-04T06:31:10.844Z,80.462646
2019-04-04T06:32:20.355Z,80.047607
2019-04-04T06:33:29.854Z,80.499268
2019-04-04T06:34:42.087Z,80.670166
2019-04-04T06:35:49.853Z,80.773926
2019-04-04T06:36:59.360Z,80.670166
2019-04-04T06:38:08.859Z,80.358887
2019-04-04T06:39:18.358Z,80.255127
2019-04-04T06:40:30.201Z,80.218506
2019-04-04T06:41:38.355Z,79.803467
2019-04-04T06:42:47.874Z,80.010986
2019-04-04T06:43:57.379Z,80.114746
2019-04-04T06:45:06.871Z,80.218506
2019-04-04T06:46:19.660Z,80.010986
2019-04-04T06:47:26.856Z,79.766846
2019-04-04T06:48:37.340Z,79.559326
2019-04-04T06:49:46.833Z,79.455566
2019-04-04T06:50:56.337Z,79.217529
2019-04-04T06:52:05.850Z,78.80249
2019-04-04T06:53:15.343Z,78.491211
2019-04-04T06:54:26.320Z,78.076172
2019-04-04T06:55:39.654Z,78.179932
2019-04-04T06:56:44.807Z,78.143311
2019-04-04T06:57:54.356Z,77.941895
2019-04-04T06:59:03.870Z,77.593994
2019-04-04T07:00:15.789Z,76.977539
2019-04-04T07:01:25.304Z,76.422119
2019-04-04T07:02:33.362Z,75.909424
2019-04-04T07:03:42.850Z,75.598145
2019-04-04T07:04:52.354Z,75.457764
2019-04-04T07:06:01.857Z,74.633789
2019-04-04T07:07:12.672Z,75.048828
2019-04-04T07:08:20.858Z,75.048828
2019-04-04T07:09:30.360Z,75.048828
2019-04-04T07:10:40.852Z,74.395752
2019-04-04T07:11:51.348Z,74.291992
2019-04-04T07:13:14.726Z,73.638916
2019-04-04T07:14:11.363Z,73.431396
2019-04-04T07:15:20.865Z,72.509766
2019-04-04T07:16:30.359Z,72.711182
2019-04-04T07:17:41.145Z,73.33374
2019-04-04T07:18:50.346Z,73.126221
2019-04-04T07:19:59.853Z,72.576904
2019-04-04T07:21:09.353Z,71.923828
2019-04-04T07:22:20.469Z,71.307373
2019-04-04T07:23:29.333Z,71.618652
2019-04-04T07:24:38.831Z,70.758057
2019-04-04T07:25:48.334Z,70.349121
2019-04-04T07:26:58.817Z,70.111084
2019-04-04T07:28:08.325Z,69.665527
2019-04-04T07:29:17.825Z,68.328857
2019-04-04T07:30:29.214Z,68.231201
2019-04-04T07:31:38.248Z,67.889404
2019-04-04T07:32:47.307Z,67.443848
2019-04-04T07:33:56.803Z,66.314697
2019-04-04T07:35:06.309Z,66.522217
2019-04-04T07:36:15.818Z,66.595459
2019-04-04T07:37:25.308Z,65.673828
2019-04-04T07:38:35.069Z,65.332031
2019-04-04T07:39:44.322Z,64.788818
2019-04-04T07:40:54.811Z,64.099121
2019-04-04T07:42:04.327Z,64.51416
2019-04-04T07:43:13.835Z,64.276123
2019-04-04T07:44:24.313Z,64.044189
2019-04-04T07:45:33.809Z,63.397217
2019-04-04T07:46:45.541Z,61.962891
2019-04-04T07:47:53.796Z,61.932373
2019-04-04T07:49:03.296Z,61.804199
2019-04-04T07:50:12.799Z,61.16333
2019-04-04T07:51:22.298Z,60.009766
2019-04-04T07:52:33.576Z,59.60083
2019-04-04T07:53:42.308Z,59.161377
2019-04-04T07:54:51.797Z,58.831787
2019-04-04T07:56:01.300Z,58.288574
2019-04-04T07:57:10.799Z,57.751465
2019-04-04T07:58:20.324Z,57.141113
2019-04-04T07:59:31.133Z,57.342529
2019-04-04T08:00:39.317Z,57.116699
2019-04-04T08:01:51.141Z,56.018066
2019-04-04T08:02:58.313Z,56.427002
2019-04-04T08:04:07.800Z,56.323242
2019-04-04T08:05:17.311Z,56.323242
2019-04-04T08:06:26.813Z,56.530762
2019-04-04T08:07:36.316Z,55.914307
2019-04-04T08:08:45.827Z,56.427002
2019-04-04T08:09:55.328Z,56.298828
2019-04-04T08:11:04.831Z,56.195068
2019-04-04T08:12:14.334Z,55.761719
2019-04-04T08:13:23.849Z,55.657959
2019-04-04T08:14:33.352Z,55.126953
2019-04-04T08:15:42.857Z,54.107666
2019-04-04T08:16:52.354Z,53.674316
2019-04-04T08:18:01.851Z,53.875732
2019-04-04T08:19:11.359Z,53.570557
2019-04-04T08:20:20.859Z,52.960205
2019-04-04T08:21:30.371Z,52.832031
2019-04-04T08:22:40.003Z,52.935791
2019-04-04T08:23:49.379Z,52.429199
2019-04-04T08:24:58.882Z,52.709961
2019-04-04T08:26:10.030Z,52.606201
2019-04-04T08:27:17.873Z,52.301025
2019-04-04T08:28:27.389Z,51.77002
2019-04-04T08:29:36.886Z,51.5625
2019-04-04T08:30:46.386Z,51.135254
2019-04-04T08:31:55.885Z,50.927734
2019-04-04T08:33:05.387Z,50.091553
2019-04-04T08:34:14.900Z,50.372314
2019-04-04T08:35:24.400Z,50.372314
2019-04-04T08:36:35.755Z,49.456787
2019-04-04T08:37:43.400Z,49.456787
2019-04-04T08:38:52.912Z,49.456787
2019-04-04T08:40:02.419Z,48.724365
2019-04-04T08:41:11.921Z,49.517822
2019-04-04T08:42:21.421Z,48.498535
2019-04-04T08:43:30.976Z,47.967529
2019-04-04T08:44:40.484Z,47.564697
2019-04-04T08:45:49.991Z,47.338867
2019-04-04T08:46:59.494Z,46.630859
2019-04-04T08:48:09.002Z,46.832275
2019-04-04T08:49:18.523Z,46.630859
2019-04-04T08:50:28.016Z,46.508789
2019-04-04T08:51:37.526Z,45.977783
2019-04-04T08:52:47.053Z,46.380615
2019-04-04T08:53:56.569Z,46.282959
2019-04-04T08:55:06.068Z,45.959473
2019-04-04T08:56:15.580Z,45.349121
2019-04-04T08:57:25.077Z,44.73877
2019-04-04T08:58:34.641Z,44.641113
2019-04-04T08:59:44.097Z,45.147705
2019-04-04T09:00:53.600Z,45.349121
2019-04-04T09:02:03.105Z,45.123291
2019-04-04T09:03:12.597Z,44.396973
2019-04-04T09:04:23.982Z,43.670654
2019-04-04T09:05:31.612Z,43.890381
2019-04-04T09:06:41.119Z,43.304443
2019-04-04T09:07:50.623Z,43.707275
2019-04-04T09:09:00.146Z,43.322754
2019-04-04T09:10:09.651Z,43.75
2019-04-04T09:11:19.177Z,44.458008
2019-04-04T09:12:28.693Z,45.147705
2019-04-04T09:13:38.196Z,45.452881
2019-04-04T09:14:47.705Z,44.73877
2019-04-04T09:15:57.208Z,44.946289
2019-04-04T09:17:06.706Z,44.012451
2019-04-04T09:18:16.211Z,43.890381
2019-04-04T09:19:25.726Z,42.877197
2019-04-04T09:20:35.249Z,42.980957
2019-04-04T09:21:44.758Z,43.261719
2019-04-04T09:22:54.269Z,42.63916
2019-04-04T09:24:03.786Z,42.755127
2019-04-04T09:25:13.281Z,42.980957
2019-04-04T09:26:22.785Z,43.609619
2019-04-04T09:27:32.283Z,44.030762
2019-04-04T09:28:41.785Z,44.030762
2019-04-04T09:29:51.302Z,44.152832
2019-04-04T09:31:00.803Z,44.360352
2019-04-04T09:32:10.301Z,44.885254
2019-04-04T09:33:21.049Z,45.08667
2019-04-04T09:34:29.304Z,45.495605
2019-04-04T09:35:38.820Z,45.898438
2019-04-04T09:36:48.326Z,45.715332
2019-04-04T09:37:57.826Z,45.715332
2019-04-04T09:39:07.385Z,46.020508
2019-04-04T09:40:16.886Z,45.20874
2019-04-04T09:41:26.383Z,45.41626
2019-04-04T09:42:35.888Z,45.819092
2019-04-04T09:43:45.388Z,47.058105
2019-04-04T09:44:54.908Z,48.547363
2019-04-04T09:46:04.402Z,48.852539
2019-04-04T09:47:13.909Z,49.383545
2019-04-04T09:48:23.400Z,48.931885
2019-04-04T09:49:32.917Z,48.498535
2019-04-04T09:50:42.720Z,48.217773
2019-04-04T09:51:51.931Z,49.255371
2019-04-04T09:53:01.433Z,49.359131
2019-04-04T09:54:10.929Z,50.012207
2019-04-04T09:55:20.465Z,50.445557
2019-04-04T09:56:29.969Z,51.5625
2019-04-04T09:57:39.473Z,51.257324
2019-04-04T09:58:48.969Z,51.159668
2019-04-04T09:59:59.478Z,51.5625
2019-04-04T10:01:08.969Z,50.830078
2019-04-04T10:02:18.468Z,50.830078
2019-04-04T10:03:27.974Z,51.99585
2019-04-04T10:04:37.483Z,51.867676
2019-04-04T10:05:46.982Z,51.843262
2019-04-04T10:06:56.485Z,51.77002
2019-04-04T10:08:05.985Z,51.641846
2019-04-04T10:09:16.371Z,51.5625
2019-04-04T10:10:24.974Z,51.867676
2019-04-04T10:11:34.474Z,51.44043
2019-04-04T10:12:43.978Z,50.701904
2019-04-04T10:13:53.480Z,50.372314
2019-04-04T10:15:02.999Z,49.664307
2019-04-04T10:16:12.507Z,49.841309
2019-04-04T10:17:22.000Z,49.133301
2019-04-04T10:18:31.507Z,49.456787
2019-04-04T10:19:41.034Z,50.317383
2019-04-04T10:20:50.548Z,51.586914
2019-04-04T10:22:00.048Z,52.301025
2019-04-04T10:23:09.548Z,51.867676
2019-04-04T10:24:19.045Z,51.135254
2019-04-04T10:25:28.571Z,51.00708
2019-04-04T10:26:38.076Z,51.23291
2019-04-04T10:27:47.579Z,51.33667
2019-04-04T10:28:57.091Z,50.90332
2019-04-04T10:30:06.609Z,51.257324
2019-04-04T10:31:16.106Z,52.807617
2019-04-04T10:32:25.610Z,52.099609
2019-04-04T10:33:35.114Z,52.197266
2019-04-04T10:34:45.595Z,52.276611
2019-04-04T10:35:55.105Z,52.606201
2019-04-04T10:37:04.610Z,52.783203
2019-04-04T10:38:14.119Z,52.227783
2019-04-04T10:39:28.929Z,50.756836
2019-04-04T10:40:34.105Z,49.743652
2019-04-04T10:41:43.614Z,50.805664
2019-04-04T10:42:53.115Z,51.971436
2019-04-04T10:44:02.615Z,51.867676
2019-04-04T10:45:12.150Z,52.172852
2019-04-04T10:46:21.656Z,52.478027
2019-04-04T10:47:31.162Z,51.922607
2019-04-04T10:48:40.658Z,50.701904
2019-04-04T10:49:50.161Z,50.805664
2019-04-04T10:50:59.683Z,51.489258
2019-04-04T10:52:09.181Z,50.250244
2019-04-04T10:53:18.671Z,50.274658
2019-04-04T10:54:28.171Z,51.208496
2019-04-04T10:55:37.674Z,51.312256
2019-04-04T10:56:47.164Z,51.593018
2019-04-04T10:57:56.668Z,50.146484
2019-04-04T10:59:06.171Z,50.146484
2019-04-04T11:00:15.678Z,50.170898
2019-04-04T11:01:25.199Z,51.617432
2019-04-04T11:02:34.701Z,51.33667
2019-04-04T11:03:44.210Z,51.593018
2019-04-04T11:04:53.708Z,50.12207
2019-04-04T11:06:03.239Z,48.962402
2019-04-04T11:07:12.738Z,48.352051
2019-04-04T11:08:22.241Z,47.924805
2019-04-04T11:09:41.250Z,47.192383
2019-04-04T11:10:42.231Z,46.258545
2019-04-04T11:11:51.734Z,46.685791
2019-04-04T11:13:02.821Z,46.588135
2019-04-04T11:14:10.730Z,47.216797
2019-04-04T11:15:20.223Z,47.216797
2019-04-04T11:16:30.599Z,48.193359
2019-04-04T11:17:39.242Z,48.498535
2019-04-04T11:18:48.736Z,49.212646
2019-04-04T11:19:58.240Z,48.175049
2019-04-04T11:21:07.776Z,49.176025
2019-04-04T11:22:17.278Z,51.031494
2019-04-04T11:23:26.770Z,50.396729
2019-04-04T11:24:36.292Z,49.639893
2019-04-04T11:25:45.803Z,48.779297
2019-04-04T11:26:55.303Z,47.845459
2019-04-04T11:28:05.800Z,47.644043
2019-04-04T11:29:15.301Z,47.460938
2019-04-04T11:30:24.818Z,47.723389
2019-04-04T11:31:34.337Z,46.911621
2019-04-04T11:32:43.843Z,46.887207
2019-04-04T11:33:54.326Z,46.002197
2019-04-04T11:35:03.826Z,46.832275
2019-04-04T11:36:13.342Z,46.832275
2019-04-04T11:37:22.853Z,48.193359
2019-04-04T11:38:32.354Z,47.894287
2019-04-04T11:39:53.634Z,48.931885
2019-04-04T11:40:52.351Z,48.931885
2019-04-04T11:42:01.846Z,48.175049
2019-04-04T11:43:11.343Z,47.314453
2019-04-04T11:44:20.982Z,46.789551
2019-04-04T11:45:30.482Z,45.532227
2019-04-04T11:46:40.002Z,44.677734
2019-04-04T11:47:49.502Z,44.677734
2019-04-04T11:48:59.000Z,44.073486
2019-04-04T11:50:08.499Z,43.969727
2019-04-04T11:51:18.016Z,43.969727
2019-04-04T11:52:27.519Z,43.52417
2019-04-04T11:53:37.021Z,43.200684
2019-04-04T11:54:46.528Z,42.492676
2019-04-04T11:55:56.063Z,42.63916
2019-04-04T11:57:05.563Z,42.736816
2019-04-04T11:58:15.063Z,43.261719
2019-04-04T11:59:24.573Z,43.87207
2019-04-04T12:00:34.076Z,43.847656
2019-04-04T12:01:43.589Z,42.816162
2019-04-04T12:02:53.157Z,42.193604
2019-04-04T12:04:02.589Z,42.614746
2019-04-04T12:05:19.147Z,43.444824
2019-04-04T12:06:28.694Z,41.973877
2019-04-04T12:07:38.708Z,41.766357
2019-04-04T12:08:47.730Z,40.722656
2019-04-04T12:10:06.660Z,40.338135
2019-04-04T12:11:07.792Z,41.082764
2019-04-04T12:12:17.330Z,41.888428
2019-04-04T12:13:26.858Z,40.960693
2019-04-04T12:14:36.378Z,41.992188
2019-04-04T12:15:45.913Z,42.376709
2019-04-04T12:16:55.443Z,41.125488
2019-04-04T12:18:04.983Z,39.794922
2019-04-04T12:19:14.499Z,40.618896
2019-04-04T12:20:24.031Z,41.589355
2019-04-04T12:21:33.567Z,41.687012
2019-04-04T12:22:43.100Z,41.748047
2019-04-04T12:23:52.608Z,40.50293
2019-04-04T12:25:02.222Z,39.154053
2019-04-04T12:26:11.784Z,39.031982
2019-04-04T12:27:21.307Z,38.73291
2019-04-04T12:28:30.874Z,38.195801
2019-04-04T12:29:40.422Z,37.689209
2019-04-04T12:30:50.025Z,38.214111
2019-04-04T12:31:59.590Z,38.012695
2019-04-04T12:33:09.147Z,37.890625
2019-04-04T12:34:18.651Z,37.890625
2019-04-04T12:35:28.189Z,37.689209
2019-04-04T12:36:37.729Z,37.70752
2019-04-04T12:37:47.249Z,37.811279
2019-04-04T12:38:56.776Z,38.616943
2019-04-04T12:40:06.301Z,37.573242
2019-04-04T12:41:16.822Z,37.072754
2019-04-04T12:42:26.331Z,36.651611
2019-04-04T12:43:35.903Z,36.871338
2019-04-04T12:44:45.366Z,36.950684
2019-04-04T12:45:54.921Z,37.573242
2019-04-04T12:47:04.471Z,38.012695
2019-04-04T12:48:13.980Z,38.378906
2019-04-04T12:49:23.516Z,37.792969
2019-04-04T12:50:33.023Z,37.457275
2019-04-04T12:51:42.583Z,37.036133
2019-04-04T12:52:52.159Z,35.394287
2019-04-04T12:54:01.672Z,35.998535
2019-04-04T12:55:11.195Z,36.767578
2019-04-04T12:56:20.755Z,38.671875
2019-04-04T12:57:30.254Z,40.118408
2019-04-04T12:58:39.755Z,39.611816
2019-04-04T12:59:49.365Z,42.028809
2019-04-04T13:00:58.854Z,44.458008
2019-04-04T13:02:08.381Z,45.495605
2019-04-04T13:03:17.879Z,44.73877
2019-04-04T13:04:31.712Z,42.596436
2019-04-04T13:05:36.907Z,39.355469
2019-04-04T13:06:46.450Z,38.696289
2019-04-04T13:07:55.998Z,37.792969
2019-04-04T13:09:05.555Z,38.17749
2019-04-04T13:10:15.076Z,36.114502
2019-04-04T13:11:24.616Z,37.304688
2019-04-04T13:12:34.168Z,40.252686
2019-04-04T13:13:43.691Z,42.962646
2019-04-04T13:14:53.215Z,44.537354
2019-04-04T13:16:02.763Z,42.51709
2019-04-04T13:17:12.340Z,43.688965